Station Historical Data
Daily Summary for March 14, 2017 Units:  Both    English   Metric
« Previous Day
Next Day »
Daily Weekly Monthly Yearly Custom
  High: Low: Average:
Temperature: 20.9 °F /  -6.2 °C 16.2 °F /  -8.8 °C 18.6 °F /  -7.4 °C
Dew Point: 17.2 °F /  -8.2 °C 13.0 °F /  -10.6 °C 15.3 °F /  -9.3 °C
Humidity: 88% 83% 87%
Wind Speed: 12.0mph /  19.3km/h - 5.7mph /  9.2km/h
Wind Gust: 18.0mph /  29km/h - -
Wind- - SSE
Pressure: 30.24 in /  1023.9 hPa 29.88 in /  1011.7 hPa -
Precipitation: 0.00 in /  0 mm    
Historical Graphs
 
 
Tabular Data for March 14, 2017
Time Temperature Dew Point Pressure Wind Wind Speed Wind Gust Humidity Rainfall Rate (Hourly)
00:04 17.5 °F /  -8.1 °C 14.3 °F /  -9.8 °C 30.24in /  1023.9hPa NE 7.0mph /  11.3km/h 12.0mph /  19.3km/h 87% 0.00in /  0mm
00:09 17.5 °F /  -8.1 °C 14.3 °F /  -9.8 °C 30.24in /  1023.9hPa NE 6.0mph /  9.7km/h 12.0mph /  19.3km/h 87% 0.00in /  0mm
00:14 17.5 °F /  -8.1 °C 14.3 °F /  -9.8 °C 30.24in /  1023.9hPa NE 6.0mph /  9.7km/h 12.0mph /  19.3km/h 87% 0.00in /  0mm
00:19 17.6 °F /  -8 °C 14.4 °F /  -9.8 °C 30.24in /  1023.9hPa NE 6.0mph /  9.7km/h 12.0mph /  19.3km/h 87% 0.00in /  0mm
00:24 17.6 °F /  -8 °C 14.4 °F /  -9.8 °C 30.24in /  1023.9hPa NE 5.0mph /  8km/h 11.0mph /  17.7km/h 87% 0.00in /  0mm
00:29 17.6 °F /  -8 °C 14.4 °F /  -9.8 °C 30.23in /  1023.6hPa NE 6.0mph /  9.7km/h 12.0mph /  19.3km/h 87% 0.00in /  0mm
00:34 17.6 °F /  -8 °C 14.4 °F /  -9.8 °C 30.23in /  1023.6hPa NE 6.0mph /  9.7km/h 12.0mph /  19.3km/h 87% 0.00in /  0mm
00:39 17.6 °F /  -8 °C 14.4 °F /  -9.8 °C 30.23in /  1023.6hPa NNE 5.0mph /  8km/h 13.0mph /  20.9km/h 87% 0.00in /  0mm
00:44 17.6 °F /  -8 °C 14.4 °F /  -9.8 °C 30.22in /  1023.2hPa NE 8.0mph /  12.9km/h 11.0mph /  17.7km/h 87% 0.00in /  0mm
00:49 17.7 °F /  -7.9 °C 14.5 °F /  -9.7 °C 30.22in /  1023.2hPa NE 11.0mph /  17.7km/h 11.0mph /  17.7km/h 87% 0.00in /  0mm
00:54 17.7 °F /  -7.9 °C 14.5 °F /  -9.7 °C 30.22in /  1023.2hPa NNE 7.0mph /  11.3km/h 14.0mph /  22.5km/h 87% 0.00in /  0mm
00:59 17.7 °F /  -7.9 °C 14.5 °F /  -9.7 °C 30.22in /  1023.2hPa NE 4.0mph /  6.4km/h 11.0mph /  17.7km/h 87% 0.00in /  0mm
01:04 17.7 °F /  -7.9 °C 14.5 °F /  -9.7 °C 30.22in /  1023.2hPa NE 6.0mph /  9.7km/h 10.0mph /  16.1km/h 87% 0.00in /  0mm
01:09 17.7 °F /  -7.9 °C 14.5 °F /  -9.7 °C 30.21in /  1022.9hPa NE 5.0mph /  8km/h 10.0mph /  16.1km/h 87% 0.00in /  0mm
01:14 17.7 °F /  -7.9 °C 14.5 °F /  -9.7 °C 30.21in /  1022.9hPa NE 6.0mph /  9.7km/h 13.0mph /  20.9km/h 87% 0.00in /  0mm
01:19 17.7 °F /  -7.9 °C 14.5 °F /  -9.7 °C 30.21in /  1022.9hPa NE 6.0mph /  9.7km/h 13.0mph /  20.9km/h 87% 0.00in /  0mm
01:24 17.7 °F /  -7.9 °C 14.5 °F /  -9.7 °C 30.20in /  1022.6hPa NE 6.0mph /  9.7km/h 11.0mph /  17.7km/h 87% 0.00in /  0mm
01:29 17.7 °F /  -7.9 °C 14.5 °F /  -9.7 °C 30.20in /  1022.6hPa NE 6.0mph /  9.7km/h 11.0mph /  17.7km/h 87% 0.00in /  0mm
01:34 17.7 °F /  -7.9 °C 14.8 °F /  -9.6 °C 30.20in /  1022.6hPa NE 5.0mph /  8km/h 10.0mph /  16.1km/h 88% 0.00in /  0mm
01:39 17.8 °F /  -7.9 °C 14.6 °F /  -9.7 °C 30.20in /  1022.6hPa NE 7.0mph /  11.3km/h 11.0mph /  17.7km/h 87% 0.00in /  0mm
01:44 17.8 °F /  -7.9 °C 14.6 °F /  -9.7 °C 30.19in /  1022.2hPa NE 7.0mph /  11.3km/h 13.0mph /  20.9km/h 87% 0.00in /  0mm
01:49 17.8 °F /  -7.9 °C 14.6 °F /  -9.7 °C 30.19in /  1022.2hPa NE 6.0mph /  9.7km/h 13.0mph /  20.9km/h 87% 0.00in /  0mm
01:54 17.8 °F /  -7.9 °C 14.6 °F /  -9.7 °C 30.19in /  1022.2hPa NE 6.0mph /  9.7km/h 13.0mph /  20.9km/h 87% 0.00in /  0mm
01:59 17.9 °F /  -7.8 °C 14.9 °F /  -9.5 °C 30.19in /  1022.2hPa NE 5.0mph /  8km/h 10.0mph /  16.1km/h 88% 0.00in /  0mm
02:04 17.9 °F /  -7.8 °C 14.9 °F /  -9.5 °C 30.19in /  1022.2hPa NE 10.0mph /  16.1km/h 10.0mph /  16.1km/h 88% 0.00in /  0mm
02:09 17.9 °F /  -7.8 °C 14.9 °F /  -9.5 °C 30.19in /  1022.2hPa NE 5.0mph /  8km/h 11.0mph /  17.7km/h 88% 0.00in /  0mm
02:14 18.0 °F /  -7.8 °C 15.0 °F /  -9.4 °C 30.19in /  1022.2hPa NE 8.0mph /  12.9km/h 8.0mph /  12.9km/h 88% 0.00in /  0mm
02:19 18.0 °F /  -7.8 °C 15.0 °F /  -9.4 °C 30.19in /  1022.2hPa NE 6.0mph /  9.7km/h 11.0mph /  17.7km/h 88% 0.00in /  0mm
02:24 18.0 °F /  -7.8 °C 15.0 °F /  -9.4 °C 30.18in /  1021.9hPa NE 5.0mph /  8km/h 10.0mph /  16.1km/h 88% 0.00in /  0mm
02:29 18.0 °F /  -7.8 °C 15.0 °F /  -9.4 °C 30.19in /  1022.2hPa East 6.0mph /  9.7km/h 12.0mph /  19.3km/h 88% 0.00in /  0mm
02:34 18.0 °F /  -7.8 °C 15.0 °F /  -9.4 °C 30.18in /  1021.9hPa ENE 3.0mph /  4.8km/h 13.0mph /  20.9km/h 88% 0.00in /  0mm
02:39 18.1 °F /  -7.7 °C 15.1 °F /  -9.4 °C 30.18in /  1021.9hPa NE 6.0mph /  9.7km/h 13.0mph /  20.9km/h 88% 0.00in /  0mm
02:44 18.1 °F /  -7.7 °C 15.1 °F /  -9.4 °C 30.18in /  1021.9hPa NE 6.0mph /  9.7km/h 13.0mph /  20.9km/h 88% 0.00in /  0mm
02:49 18.2 °F /  -7.7 °C 15.2 °F /  -9.3 °C 30.18in /  1021.9hPa NE 6.0mph /  9.7km/h 13.0mph /  20.9km/h 88% 0.00in /  0mm
02:54 18.3 °F /  -7.6 °C 15.3 °F /  -9.3 °C 30.18in /  1021.9hPa NE 6.0mph /  9.7km/h 12.0mph /  19.3km/h 88% 0.00in /  0mm
02:59 18.3 °F /  -7.6 °C 15.3 °F /  -9.3 °C 30.17in /  1021.6hPa NE 5.0mph /  8km/h 13.0mph /  20.9km/h 88% 0.00in /  0mm
03:04 18.4 °F /  -7.6 °C 15.4 °F /  -9.2 °C 30.17in /  1021.6hPa NE 7.0mph /  11.3km/h 12.0mph /  19.3km/h 88% 0.00in /  0mm
03:09 18.4 °F /  -7.6 °C 15.4 °F /  -9.2 °C 30.17in /  1021.6hPa NE 5.0mph /  8km/h 11.0mph /  17.7km/h 88% 0.00in /  0mm
03:14 18.5 °F /  -7.5 °C 15.5 °F /  -9.2 °C 30.17in /  1021.6hPa NE 5.0mph /  8km/h 11.0mph /  17.7km/h 88% 0.00in /  0mm
03:19 18.5 °F /  -7.5 °C 15.5 °F /  -9.2 °C 30.16in /  1021.2hPa NE 5.0mph /  8km/h 11.0mph /  17.7km/h 88% 0.00in /  0mm
03:24 18.6 °F /  -7.4 °C 15.6 °F /  -9.1 °C 30.16in /  1021.2hPa NE 6.0mph /  9.7km/h 13.0mph /  20.9km/h 88% 0.00in /  0mm
03:29 18.6 °F /  -7.4 °C 15.6 °F /  -9.1 °C 30.15in /  1020.9hPa NE 6.0mph /  9.7km/h 10.0mph /  16.1km/h 88% 0.00in /  0mm
03:34 18.7 °F /  -7.4 °C 15.7 °F /  -9.1 °C 30.15in /  1020.9hPa NE 5.0mph /  8km/h 8.0mph /  12.9km/h 88% 0.00in /  0mm
03:39 18.8 °F /  -7.3 °C 15.8 °F /  -9 °C 30.15in /  1020.9hPa NE 3.0mph /  4.8km/h 13.0mph /  20.9km/h 88% 0.00in /  0mm
03:44 18.8 °F /  -7.3 °C 15.8 °F /  -9 °C 30.14in /  1020.5hPa NE 3.0mph /  4.8km/h 9.0mph /  14.5km/h 88% 0.00in /  0mm
03:49 18.8 °F /  -7.3 °C 15.8 °F /  -9 °C 30.14in /  1020.5hPa NE 2.0mph /  3.2km/h 9.0mph /  14.5km/h 88% 0.00in /  0mm
03:54 18.8 °F /  -7.3 °C 15.8 °F /  -9 °C 30.14in /  1020.5hPa NE 5.0mph /  8km/h 13.0mph /  20.9km/h 88% 0.00in /  0mm
03:59 18.8 °F /  -7.3 °C 15.8 °F /  -9 °C 30.13in /  1020.2hPa NE 6.0mph /  9.7km/h 13.0mph /  20.9km/h 88% 0.00in /  0mm
04:04 18.8 °F /  -7.3 °C 15.8 °F /  -9 °C 30.13in /  1020.2hPa NE 6.0mph /  9.7km/h 12.0mph /  19.3km/h 88% 0.00in /  0mm
04:09 18.8 °F /  -7.3 °C 15.8 °F /  -9 °C 30.13in /  1020.2hPa NE 5.0mph /  8km/h 9.0mph /  14.5km/h 88% 0.00in /  0mm
04:14 18.7 °F /  -7.4 °C 15.7 °F /  -9.1 °C 30.13in /  1020.2hPa NNE 6.0mph /  9.7km/h 11.0mph /  17.7km/h 88% 0.00in /  0mm
04:19 18.7 °F /  -7.4 °C 15.7 °F /  -9.1 °C 30.12in /  1019.9hPa NE 4.0mph /  6.4km/h 12.0mph /  19.3km/h 88% 0.00in /  0mm
04:24 18.6 °F /  -7.4 °C 15.6 °F /  -9.1 °C 30.12in /  1019.9hPa NE 6.0mph /  9.7km/h 10.0mph /  16.1km/h 88% 0.00in /  0mm
04:29 18.6 °F /  -7.4 °C 15.6 °F /  -9.1 °C 30.13in /  1020.2hPa NNE 4.0mph /  6.4km/h 12.0mph /  19.3km/h 88% 0.00in /  0mm
04:34 18.5 °F /  -7.5 °C 15.5 °F /  -9.2 °C 30.13in /  1020.2hPa NNE 8.0mph /  12.9km/h 11.0mph /  17.7km/h 88% 0.00in /  0mm
04:39 18.4 °F /  -7.6 °C 15.4 °F /  -9.2 °C 30.12in /  1019.9hPa NE 7.0mph /  11.3km/h 11.0mph /  17.7km/h 88% 0.00in /  0mm
04:44 18.4 °F /  -7.6 °C 15.4 °F /  -9.2 °C 30.12in /  1019.9hPa ENE 9.0mph /  14.5km/h 11.0mph /  17.7km/h 88% 0.00in /  0mm
04:49 18.3 °F /  -7.6 °C 15.3 °F /  -9.3 °C 30.12in /  1019.9hPa NE 7.0mph /  11.3km/h 15.0mph /  24.1km/h 88% 0.00in /  0mm
04:54 18.3 °F /  -7.6 °C 15.3 °F /  -9.3 °C 30.12in /  1019.9hPa NE 7.0mph /  11.3km/h 15.0mph /  24.1km/h 88% 0.00in /  0mm
04:59 18.2 °F /  -7.7 °C 15.2 °F /  -9.3 °C 30.12in /  1019.9hPa NE 6.0mph /  9.7km/h 12.0mph /  19.3km/h 88% 0.00in /  0mm
05:04 18.2 °F /  -7.7 °C 15.2 °F /  -9.3 °C 30.11in /  1019.5hPa NE 6.0mph /  9.7km/h 12.0mph /  19.3km/h 88% 0.00in /  0mm
05:09 18.2 °F /  -7.7 °C 15.2 °F /  -9.3 °C 30.11in /  1019.5hPa NE 6.0mph /  9.7km/h 18.0mph /  29km/h 88% 0.00in /  0mm
05:14 18.1 °F /  -7.7 °C 15.1 °F /  -9.4 °C 30.12in /  1019.9hPa NE 5.0mph /  8km/h 18.0mph /  29km/h 88% 0.00in /  0mm
05:19 18.1 °F /  -7.7 °C 15.1 °F /  -9.4 °C 30.11in /  1019.5hPa NE 5.0mph /  8km/h 12.0mph /  19.3km/h 88% 0.00in /  0mm
05:24 17.9 °F /  -7.8 °C 14.9 °F /  -9.5 °C 30.12in /  1019.9hPa NE 6.0mph /  9.7km/h 16.0mph /  25.7km/h 88% 0.00in /  0mm
05:29 17.9 °F /  -7.8 °C 14.9 °F /  -9.5 °C 30.11in /  1019.5hPa NNE 4.0mph /  6.4km/h 11.0mph /  17.7km/h 88% 0.00in /  0mm
05:34 17.8 °F /  -7.9 °C 14.8 °F /  -9.6 °C 30.11in /  1019.5hPa NNW 3.0mph /  4.8km/h 10.0mph /  16.1km/h 88% 0.00in /  0mm
05:39 17.7 °F /  -7.9 °C 14.8 °F /  -9.6 °C 30.11in /  1019.5hPa NE 3.0mph /  4.8km/h 14.0mph /  22.5km/h 88% 0.00in /  0mm
05:44 17.6 °F /  -8 °C 14.7 °F /  -9.6 °C 30.11in /  1019.5hPa NNE 5.0mph /  8km/h 11.0mph /  17.7km/h 88% 0.00in /  0mm
05:49 17.6 °F /  -8 °C 14.7 °F /  -9.6 °C 30.11in /  1019.5hPa NNE 3.0mph /  4.8km/h 13.0mph /  20.9km/h 88% 0.00in /  0mm
05:54 17.6 °F /  -8 °C 14.7 °F /  -9.6 °C 30.11in /  1019.5hPa NE 8.0mph /  12.9km/h 10.0mph /  16.1km/h 88% 0.00in /  0mm
05:59 17.5 °F /  -8.1 °C 14.6 °F /  -9.7 °C 30.11in /  1019.5hPa NE 5.0mph /  8km/h 12.0mph /  19.3km/h 88% 0.00in /  0mm
06:04 17.5 °F /  -8.1 °C 14.6 °F /  -9.7 °C 30.11in /  1019.5hPa NE 6.0mph /  9.7km/h 12.0mph /  19.3km/h 88% 0.00in /  0mm
06:09 17.4 °F /  -8.1 °C 14.5 °F /  -9.7 °C 30.11in /  1019.5hPa NE 4.0mph /  6.4km/h 14.0mph /  22.5km/h 88% 0.00in /  0mm
06:14 17.4 °F /  -8.1 °C 14.5 °F /  -9.7 °C 30.10in /  1019.2hPa NNE 5.0mph /  8km/h 12.0mph /  19.3km/h 88% 0.00in /  0mm
06:19 17.4 °F /  -8.1 °C 14.5 °F /  -9.7 °C 30.10in /  1019.2hPa NNE 6.0mph /  9.7km/h 9.0mph /  14.5km/h 88% 0.00in /  0mm
06:24 17.3 °F /  -8.2 °C 14.1 °F /  -9.9 °C 30.10in /  1019.2hPa NE 7.0mph /  11.3km/h 12.0mph /  19.3km/h 87% 0.00in /  0mm
06:29 17.3 °F /  -8.2 °C 14.4 °F /  -9.8 °C 30.10in /  1019.2hPa NNE 5.0mph /  8km/h 10.0mph /  16.1km/h 88% 0.00in /  0mm
06:34 17.3 °F /  -8.2 °C 14.4 °F /  -9.8 °C 30.10in /  1019.2hPa NE 6.0mph /  9.7km/h 15.0mph /  24.1km/h 88% 0.00in /  0mm
06:39 17.3 °F /  -8.2 °C 14.4 °F /  -9.8 °C 30.10in /  1019.2hPa NE 6.0mph /  9.7km/h 15.0mph /  24.1km/h 88% 0.00in /  0mm
06:44 17.3 °F /  -8.2 °C 14.4 °F /  -9.8 °C 30.10in /  1019.2hPa NE 6.0mph /  9.7km/h 11.0mph /  17.7km/h 88% 0.00in /  0mm
06:49 17.3 °F /  -8.2 °C 14.4 °F /  -9.8 °C 30.10in /  1019.2hPa NE 5.0mph /  8km/h 10.0mph /  16.1km/h 88% 0.00in /  0mm
06:54 17.4 °F /  -8.1 °C 14.5 °F /  -9.7 °C 30.09in /  1018.8hPa NE 2.0mph /  3.2km/h 11.0mph /  17.7km/h 88% 0.00in /  0mm
06:59 17.3 °F /  -8.2 °C 14.4 °F /  -9.8 °C 30.09in /  1018.8hPa NNE 5.0mph /  8km/h 13.0mph /  20.9km/h 88% 0.00in /  0mm
07:04 17.3 °F /  -8.2 °C 14.4 °F /  -9.8 °C 30.08in /  1018.5hPa NE 6.0mph /  9.7km/h 13.0mph /  20.9km/h 88% 0.00in /  0mm
07:09 17.4 °F /  -8.1 °C 14.5 °F /  -9.7 °C 30.09in /  1018.8hPa NE 6.0mph /  9.7km/h 11.0mph /  17.7km/h 88% 0.00in /  0mm
07:14 17.3 °F /  -8.2 °C 14.4 °F /  -9.8 °C 30.08in /  1018.5hPa North 6.0mph /  9.7km/h 10.0mph /  16.1km/h 88% 0.00in /  0mm
07:19 17.4 °F /  -8.1 °C 14.5 °F /  -9.7 °C 30.08in /  1018.5hPa North 7.0mph /  11.3km/h 10.0mph /  16.1km/h 88% 0.00in /  0mm
07:24 17.4 °F /  -8.1 °C 14.5 °F /  -9.7 °C 30.08in /  1018.5hPa NE 5.0mph /  8km/h 9.0mph /  14.5km/h 88% 0.00in /  0mm
07:29 17.3 °F /  -8.2 °C 14.4 °F /  -9.8 °C 30.08in /  1018.5hPa North 3.0mph /  4.8km/h 12.0mph /  19.3km/h 88% 0.00in /  0mm
07:34 17.4 °F /  -8.1 °C 14.5 °F /  -9.7 °C 30.07in /  1018.2hPa NE 8.0mph /  12.9km/h 14.0mph /  22.5km/h 88% 0.00in /  0mm
07:39 17.4 °F /  -8.1 °C 14.5 °F /  -9.7 °C 30.07in /  1018.2hPa NNE 5.0mph /  8km/h 14.0mph /  22.5km/h 88% 0.00in /  0mm
07:44 17.3 °F /  -8.2 °C 14.4 °F /  -9.8 °C 30.07in /  1018.2hPa NNE 6.0mph /  9.7km/h 13.0mph /  20.9km/h 88% 0.00in /  0mm
07:49 17.3 °F /  -8.2 °C 14.4 °F /  -9.8 °C 30.07in /  1018.2hPa NNE 6.0mph /  9.7km/h 11.0mph /  17.7km/h 88% 0.00in /  0mm
07:54 17.4 °F /  -8.1 °C 14.5 °F /  -9.7 °C 30.07in /  1018.2hPa NNE 5.0mph /  8km/h 14.0mph /  22.5km/h 88% 0.00in /  0mm
07:59 17.5 °F /  -8.1 °C 14.6 °F /  -9.7 °C 30.07in /  1018.2hPa NNE 5.0mph /  8km/h 14.0mph /  22.5km/h 88% 0.00in /  0mm
08:04 17.4 °F /  -8.1 °C 14.5 °F /  -9.7 °C 30.07in /  1018.2hPa NNE 6.0mph /  9.7km/h 14.0mph /  22.5km/h 88% 0.00in /  0mm
08:09 17.5 °F /  -8.1 °C 14.6 °F /  -9.7 °C 30.07in /  1018.2hPa NE 7.0mph /  11.3km/h 12.0mph /  19.3km/h 88% 0.00in /  0mm
08:14 17.5 °F /  -8.1 °C 14.6 °F /  -9.7 °C 30.07in /  1018.2hPa North 4.0mph /  6.4km/h 13.0mph /  20.9km/h 88% 0.00in /  0mm
08:19 17.5 °F /  -8.1 °C 14.6 °F /  -9.7 °C 30.07in /  1018.2hPa NNE 6.0mph /  9.7km/h 14.0mph /  22.5km/h 88% 0.00in /  0mm
08:24 17.6 °F /  -8 °C 14.7 °F /  -9.6 °C 30.07in /  1018.2hPa NNE 4.0mph /  6.4km/h 9.0mph /  14.5km/h 88% 0.00in /  0mm
08:29 17.7 °F /  -7.9 °C 14.8 °F /  -9.6 °C 30.07in /  1018.2hPa NE 5.0mph /  8km/h 10.0mph /  16.1km/h 88% 0.00in /  0mm
08:34 17.7 °F /  -7.9 °C 14.8 °F /  -9.6 °C 30.07in /  1018.2hPa NNE 6.0mph /  9.7km/h 10.0mph /  16.1km/h 88% 0.00in /  0mm
08:39 17.7 °F /  -7.9 °C 14.8 °F /  -9.6 °C 30.06in /  1017.8hPa NNE 7.0mph /  11.3km/h 14.0mph /  22.5km/h 88% 0.00in /  0mm
08:44 17.7 °F /  -7.9 °C 14.5 °F /  -9.7 °C 30.06in /  1017.8hPa NNE 6.0mph /  9.7km/h 12.0mph /  19.3km/h 87% 0.00in /  0mm
08:49 17.8 °F /  -7.9 °C 14.6 °F /  -9.7 °C 30.07in /  1018.2hPa NNE 7.0mph /  11.3km/h 13.0mph /  20.9km/h 87% 0.00in /  0mm
08:54 17.8 °F /  -7.9 °C 14.8 °F /  -9.6 °C 30.06in /  1017.8hPa NNE 7.0mph /  11.3km/h 15.0mph /  24.1km/h 88% 0.00in /  0mm
08:59 17.8 °F /  -7.9 °C 14.6 °F /  -9.7 °C 30.06in /  1017.8hPa NNE 7.0mph /  11.3km/h 15.0mph /  24.1km/h 87% 0.00in /  0mm
09:04 17.9 °F /  -7.8 °C 14.9 °F /  -9.5 °C 30.06in /  1017.8hPa NNE 7.0mph /  11.3km/h 15.0mph /  24.1km/h 88% 0.00in /  0mm
09:09 17.9 °F /  -7.8 °C 14.9 °F /  -9.5 °C 30.05in /  1017.5hPa NNE 7.0mph /  11.3km/h 15.0mph /  24.1km/h 88% 0.00in /  0mm
09:14 18.0 °F /  -7.8 °C 14.8 °F /  -9.6 °C 30.05in /  1017.5hPa NNE 6.0mph /  9.7km/h 12.0mph /  19.3km/h 87% 0.00in /  0mm
09:19 18.0 °F /  -7.8 °C 14.8 °F /  -9.6 °C 30.05in /  1017.5hPa NNE 7.0mph /  11.3km/h 11.0mph /  17.7km/h 87% 0.00in /  0mm
09:24 18.0 °F /  -7.8 °C 14.8 °F /  -9.6 °C 30.05in /  1017.5hPa NNE 6.0mph /  9.7km/h 18.0mph /  29km/h 87% 0.00in /  0mm
09:29 18.1 °F /  -7.7 °C 14.9 °F /  -9.5 °C 30.05in /  1017.5hPa NNE 5.0mph /  8km/h 11.0mph /  17.7km/h 87% 0.00in /  0mm
09:34 18.2 °F /  -7.7 °C 15.0 °F /  -9.4 °C 30.05in /  1017.5hPa NE 10.0mph /  16.1km/h 12.0mph /  19.3km/h 87% 0.00in /  0mm
09:39 18.4 °F /  -7.6 °C 15.2 °F /  -9.3 °C 30.04in /  1017.2hPa NNE 7.0mph /  11.3km/h 11.0mph /  17.7km/h 87% 0.00in /  0mm
09:44 18.4 °F /  -7.6 °C 15.2 °F /  -9.3 °C 30.04in /  1017.2hPa North 7.0mph /  11.3km/h 11.0mph /  17.7km/h 87% 0.00in /  0mm
09:49 18.6 °F /  -7.4 °C 15.4 °F /  -9.2 °C 30.04in /  1017.2hPa NNE 7.0mph /  11.3km/h 13.0mph /  20.9km/h 87% 0.00in /  0mm
09:54 18.6 °F /  -7.4 °C 15.1 °F /  -9.4 °C 30.04in /  1017.2hPa NNE 7.0mph /  11.3km/h 13.0mph /  20.9km/h 86% 0.00in /  0mm
09:59 18.7 °F /  -7.4 °C 15.2 °F /  -9.3 °C 30.04in /  1017.2hPa NNE 7.0mph /  11.3km/h 12.0mph /  19.3km/h 86% 0.00in /  0mm
10:04 18.8 °F /  -7.3 °C 15.3 °F /  -9.3 °C 30.04in /  1017.2hPa NNE 7.0mph /  11.3km/h 17.0mph /  27.4km/h 86% 0.00in /  0mm
10:09 18.9 °F /  -7.3 °C 15.4 °F /  -9.2 °C 30.04in /  1017.2hPa NNE 6.0mph /  9.7km/h 17.0mph /  27.4km/h 86% 0.00in /  0mm
10:14 19.0 °F /  -7.2 °C 15.5 °F /  -9.2 °C 30.03in /  1016.8hPa NNE 7.0mph /  11.3km/h 17.0mph /  27.4km/h 86% 0.00in /  0mm
10:19 19.2 °F /  -7.1 °C 15.7 °F /  -9.1 °C 30.03in /  1016.8hPa NNE 5.0mph /  8km/h 10.0mph /  16.1km/h 86% 0.00in /  0mm
10:24 19.3 °F /  -7.1 °C 15.5 °F /  -9.2 °C 30.02in /  1016.5hPa NNE 4.0mph /  6.4km/h 11.0mph /  17.7km/h 85% 0.00in /  0mm
10:30 19.3 °F /  -7.1 °C 15.5 °F /  -9.2 °C 30.01in /  1016.1hPa NNE 7.0mph /  11.3km/h 13.0mph /  20.9km/h 85% 0.00in /  0mm
10:39 19.6 °F /  -6.9 °C 15.8 °F /  -9 °C 30.01in /  1016.1hPa NNE 6.0mph /  9.7km/h 11.0mph /  17.7km/h 85% 0.00in /  0mm
10:44 19.8 °F /  -6.8 °C 16.0 °F /  -8.9 °C 30.02in /  1016.5hPa NNE 5.0mph /  8km/h 11.0mph /  17.7km/h 85% 0.00in /  0mm
10:49 19.5 °F /  -6.9 °C 15.7 °F /  -9.1 °C 30.02in /  1016.5hPa NNE 9.0mph /  14.5km/h 11.0mph /  17.7km/h 85% 0.00in /  0mm
10:54 19.4 °F /  -7 °C 15.6 °F /  -9.1 °C 30.02in /  1016.5hPa North 8.0mph /  12.9km/h 11.0mph /  17.7km/h 85% 0.00in /  0mm
10:59 19.4 °F /  -7 °C 15.6 °F /  -9.1 °C 30.02in /  1016.5hPa NE 7.0mph /  11.3km/h 14.0mph /  22.5km/h 85% 0.00in /  0mm
11:04 19.7 °F /  -6.8 °C 15.9 °F /  -8.9 °C 30.02in /  1016.5hPa NNE 6.0mph /  9.7km/h 14.0mph /  22.5km/h 85% 0.00in /  0mm
11:09 19.8 °F /  -6.8 °C 16.0 °F /  -8.9 °C 30.02in /  1016.5hPa NNE 5.0mph /  8km/h 12.0mph /  19.3km/h 85% 0.00in /  0mm
11:14 19.7 °F /  -6.8 °C 15.6 °F /  -9.1 °C 30.01in /  1016.1hPa NNE 6.0mph /  9.7km/h 12.0mph /  19.3km/h 84% 0.00in /  0mm
11:19 19.7 °F /  -6.8 °C 15.9 °F /  -8.9 °C 30.01in /  1016.1hPa NNE 7.0mph /  11.3km/h 13.0mph /  20.9km/h 85% 0.00in /  0mm
11:24 19.8 °F /  -6.8 °C 16.0 °F /  -8.9 °C 30.01in /  1016.1hPa North 10.0mph /  16.1km/h 11.0mph /  17.7km/h 85% 0.00in /  0mm
11:29 19.8 °F /  -6.8 °C 15.7 °F /  -9.1 °C 30.00in /  1015.8hPa NNE 4.0mph /  6.4km/h 13.0mph /  20.9km/h 84% 0.00in /  0mm
11:34 19.9 °F /  -6.7 °C 16.1 °F /  -8.8 °C 30.01in /  1016.1hPa NNE 8.0mph /  12.9km/h 9.0mph /  14.5km/h 85% 0.00in /  0mm
11:39 20.0 °F /  -6.7 °C 15.9 °F /  -8.9 °C 30.01in /  1016.1hPa NNE 6.0mph /  9.7km/h 11.0mph /  17.7km/h 84% 0.00in /  0mm
11:44 20.1 °F /  -6.6 °C 16.0 °F /  -8.9 °C 30.00in /  1015.8hPa NNE 6.0mph /  9.7km/h 11.0mph /  17.7km/h 84% 0.00in /  0mm
11:49 20.1 °F /  -6.6 °C 16.3 °F /  -8.7 °C 29.99in /  1015.5hPa NNE 4.0mph /  6.4km/h 10.0mph /  16.1km/h 85% 0.00in /  0mm
11:54 20.0 °F /  -6.7 °C 15.9 °F /  -8.9 °C 30.00in /  1015.8hPa NNE 10.0mph /  16.1km/h 13.0mph /  20.9km/h 84% 0.00in /  0mm
11:59 19.9 °F /  -6.7 °C 15.8 °F /  -9 °C 29.99in /  1015.5hPa NNE 9.0mph /  14.5km/h 13.0mph /  20.9km/h 84% 0.00in /  0mm
12:04 19.9 °F /  -6.7 °C 15.8 °F /  -9 °C 29.99in /  1015.5hPa NNE 5.0mph /  8km/h 13.0mph /  20.9km/h 84% 0.00in /  0mm
12:09 20.0 °F /  -6.7 °C 15.7 °F /  -9.1 °C 29.99in /  1015.5hPa NNE 10.0mph /  16.1km/h 13.0mph /  20.9km/h 83% 0.00in /  0mm
12:14 20.1 °F /  -6.6 °C 15.8 °F /  -9 °C 29.99in /  1015.5hPa NNE 8.0mph /  12.9km/h 13.0mph /  20.9km/h 83% 0.00in /  0mm
12:19 20.6 °F /  -6.3 °C 16.5 °F /  -8.6 °C 29.99in /  1015.5hPa NNE 6.0mph /  9.7km/h 11.0mph /  17.7km/h 84% 0.00in /  0mm
12:24 20.6 °F /  -6.3 °C 16.5 °F /  -8.6 °C 29.99in /  1015.5hPa NNE 5.0mph /  8km/h 14.0mph /  22.5km/h 84% 0.00in /  0mm
12:29 20.6 °F /  -6.3 °C 16.5 °F /  -8.6 °C 29.99in /  1015.5hPa NNE 6.0mph /  9.7km/h 14.0mph /  22.5km/h 84% 0.00in /  0mm
12:34 20.5 °F /  -6.4 °C 16.4 °F /  -8.7 °C 29.98in /  1015.1hPa NNE 6.0mph /  9.7km/h 13.0mph /  20.9km/h 84% 0.00in /  0mm
12:39 20.8 °F /  -6.2 °C 16.7 °F /  -8.5 °C 29.98in /  1015.1hPa NNE 6.0mph /  9.7km/h 11.0mph /  17.7km/h 84% 0.00in /  0mm
12:44 20.9 °F /  -6.2 °C 16.8 °F /  -8.4 °C 29.98in /  1015.1hPa North 6.0mph /  9.7km/h 11.0mph /  17.7km/h 84% 0.00in /  0mm
12:49 20.5 °F /  -6.4 °C 16.2 °F /  -8.8 °C 29.97in /  1014.8hPa North 6.0mph /  9.7km/h 16.0mph /  25.7km/h 83% 0.00in /  0mm
12:54 20.7 °F /  -6.3 °C 16.6 °F /  -8.6 °C 29.97in /  1014.8hPa NNW 5.0mph /  8km/h 13.0mph /  20.9km/h 84% 0.00in /  0mm
12:59 20.6 °F /  -6.3 °C 16.5 °F /  -8.6 °C 29.97in /  1014.8hPa North 5.0mph /  8km/h 10.0mph /  16.1km/h 84% 0.00in /  0mm
13:04 20.7 °F /  -6.3 °C 16.6 °F /  -8.6 °C 29.97in /  1014.8hPa NNW 7.0mph /  11.3km/h 12.0mph /  19.3km/h 84% 0.00in /  0mm
13:09 20.7 °F /  -6.3 °C 16.6 °F /  -8.6 °C 29.97in /  1014.8hPa NNE 3.0mph /  4.8km/h 12.0mph /  19.3km/h 84% 0.00in /  0mm
13:14 20.6 °F /  -6.3 °C 16.5 °F /  -8.6 °C 29.96in /  1014.4hPa North 6.0mph /  9.7km/h 12.0mph /  19.3km/h 84% 0.00in /  0mm
13:19 20.6 °F /  -6.3 °C 16.5 °F /  -8.6 °C 29.96in /  1014.4hPa North 6.0mph /  9.7km/h 15.0mph /  24.1km/h 84% 0.00in /  0mm
13:24 20.6 °F /  -6.3 °C 16.5 °F /  -8.6 °C 29.96in /  1014.4hPa North 6.0mph /  9.7km/h 15.0mph /  24.1km/h 84% 0.00in /  0mm
13:29 20.7 °F /  -6.3 °C 16.6 °F /  -8.6 °C 29.96in /  1014.4hPa North 6.0mph /  9.7km/h 13.0mph /  20.9km/h 84% 0.00in /  0mm
13:34 20.7 °F /  -6.3 °C 16.6 °F /  -8.6 °C 29.95in /  1014.1hPa North 6.0mph /  9.7km/h 13.0mph /  20.9km/h 84% 0.00in /  0mm
13:39 20.7 °F /  -6.3 °C 16.6 °F /  -8.6 °C 29.95in /  1014.1hPa NNW 9.0mph /  14.5km/h 11.0mph /  17.7km/h 84% 0.00in /  0mm
13:44 20.5 °F /  -6.4 °C 16.4 °F /  -8.7 °C 29.95in /  1014.1hPa NNW 6.0mph /  9.7km/h 17.0mph /  27.4km/h 84% 0.00in /  0mm
13:49 20.5 °F /  -6.4 °C 16.7 °F /  -8.5 °C 29.95in /  1014.1hPa North 7.0mph /  11.3km/h 17.0mph /  27.4km/h 85% 0.00in /  0mm
13:54 20.6 °F /  -6.3 °C 16.8 °F /  -8.4 °C 29.95in /  1014.1hPa NNE 4.0mph /  6.4km/h 11.0mph /  17.7km/h 85% 0.00in /  0mm
13:59 20.6 °F /  -6.3 °C 16.8 °F /  -8.4 °C 29.94in /  1013.8hPa NNW 7.0mph /  11.3km/h 13.0mph /  20.9km/h 85% 0.00in /  0mm
14:04 20.6 °F /  -6.3 °C 16.8 °F /  -8.4 °C 29.94in /  1013.8hPa NNW 6.0mph /  9.7km/h 14.0mph /  22.5km/h 85% 0.00in /  0mm
14:09 20.6 °F /  -6.3 °C 16.8 °F /  -8.4 °C 29.93in /  1013.4hPa North 4.0mph /  6.4km/h 15.0mph /  24.1km/h 85% 0.00in /  0mm
14:14 20.5 °F /  -6.4 °C 16.7 °F /  -8.5 °C 29.93in /  1013.4hPa North 6.0mph /  9.7km/h 11.0mph /  17.7km/h 85% 0.00in /  0mm
14:19 20.6 °F /  -6.3 °C 17.1 °F /  -8.3 °C 29.93in /  1013.4hPa North 6.0mph /  9.7km/h 13.0mph /  20.9km/h 86% 0.00in /  0mm
14:24 20.7 °F /  -6.3 °C 17.2 °F /  -8.2 °C 29.93in /  1013.4hPa North 5.0mph /  8km/h 13.0mph /  20.9km/h 86% 0.00in /  0mm
14:29 20.6 °F /  -6.3 °C 17.1 °F /  -8.3 °C 29.93in /  1013.4hPa North 5.0mph /  8km/h 13.0mph /  20.9km/h 86% 0.00in /  0mm
14:34 20.6 °F /  -6.3 °C 16.8 °F /  -8.4 °C 29.93in /  1013.4hPa North 6.0mph /  9.7km/h 14.0mph /  22.5km/h 85% 0.00in /  0mm
14:39 20.6 °F /  -6.3 °C 16.8 °F /  -8.4 °C 29.93in /  1013.4hPa North 6.0mph /  9.7km/h 14.0mph /  22.5km/h 85% 0.00in /  0mm
14:44 20.4 °F /  -6.4 °C 16.6 °F /  -8.6 °C 29.93in /  1013.4hPa NNE 10.0mph /  16.1km/h 14.0mph /  22.5km/h 85% 0.00in /  0mm
14:49 20.4 °F /  -6.4 °C 16.6 °F /  -8.6 °C 29.93in /  1013.4hPa North 7.0mph /  11.3km/h 16.0mph /  25.7km/h 85% 0.00in /  0mm
14:54 20.4 °F /  -6.4 °C 16.6 °F /  -8.6 °C 29.93in /  1013.4hPa North 7.0mph /  11.3km/h 16.0mph /  25.7km/h 85% 0.00in /  0mm
14:59 20.4 °F /  -6.4 °C 16.6 °F /  -8.6 °C 29.93in /  1013.4hPa North 6.0mph /  9.7km/h 15.0mph /  24.1km/h 85% 0.00in /  0mm
15:04 20.7 °F /  -6.3 °C 16.9 °F /  -8.4 °C 29.93in /  1013.4hPa North 5.0mph /  8km/h 13.0mph /  20.9km/h 85% 0.00in /  0mm
15:09 20.9 °F /  -6.2 °C 17.1 °F /  -8.3 °C 29.93in /  1013.4hPa North 4.0mph /  6.4km/h 11.0mph /  17.7km/h 85% 0.00in /  0mm
15:14 20.8 °F /  -6.2 °C 17.0 °F /  -8.3 °C 29.93in /  1013.4hPa North 9.0mph /  14.5km/h 13.0mph /  20.9km/h 85% 0.00in /  0mm
15:19 20.6 °F /  -6.3 °C 16.8 °F /  -8.4 °C 29.93in /  1013.4hPa NNW 3.0mph /  4.8km/h 12.0mph /  19.3km/h 85% 0.00in /  0mm
15:24 20.6 °F /  -6.3 °C 16.8 °F /  -8.4 °C 29.93in /  1013.4hPa North 7.0mph /  11.3km/h 15.0mph /  24.1km/h 85% 0.00in /  0mm
15:29 20.6 °F /  -6.3 °C 16.8 °F /  -8.4 °C 29.93in /  1013.4hPa North 6.0mph /  9.7km/h 15.0mph /  24.1km/h 85% 0.00in /  0mm
15:34 20.5 °F /  -6.4 °C 16.7 °F /  -8.5 °C 29.93in /  1013.4hPa North 5.0mph /  8km/h 12.0mph /  19.3km/h 85% 0.00in /  0mm
15:39 20.5 °F /  -6.4 °C 17.0 °F /  -8.3 °C 29.93in /  1013.4hPa North 5.0mph /  8km/h 11.0mph /  17.7km/h 86% 0.00in /  0mm
15:44 20.3 °F /  -6.5 °C 16.8 °F /  -8.4 °C 29.93in /  1013.4hPa NW 5.0mph /  8km/h 9.0mph /  14.5km/h 86% 0.00in /  0mm
15:49 20.2 °F /  -6.6 °C 16.7 °F /  -8.5 °C 29.92in /  1013.1hPa North 3.0mph /  4.8km/h 10.0mph /  16.1km/h 86% 0.00in /  0mm
15:54 20.1 °F /  -6.6 °C 16.6 °F /  -8.6 °C 29.92in /  1013.1hPa North 6.0mph /  9.7km/h 15.0mph /  24.1km/h 86% 0.00in /  0mm
15:59 20.1 °F /  -6.6 °C 16.6 °F /  -8.6 °C 29.92in /  1013.1hPa North 6.0mph /  9.7km/h 15.0mph /  24.1km/h 86% 0.00in /  0mm
16:04 20.2 °F /  -6.6 °C 16.7 °F /  -8.5 °C 29.92in /  1013.1hPa North 6.0mph /  9.7km/h 13.0mph /  20.9km/h 86% 0.00in /  0mm
16:09 20.3 °F /  -6.5 °C 16.8 °F /  -8.4 °C 29.92in /  1013.1hPa North 6.0mph /  9.7km/h 12.0mph /  19.3km/h 86% 0.00in /  0mm
16:14 20.3 °F /  -6.5 °C 16.8 °F /  -8.4 °C 29.93in /  1013.4hPa NNE 5.0mph /  8km/h 15.0mph /  24.1km/h 86% 0.00in /  0mm
16:19 20.4 °F /  -6.4 °C 16.9 °F /  -8.4 °C 29.93in /  1013.4hPa North 6.0mph /  9.7km/h 11.0mph /  17.7km/h 86% 0.00in /  0mm
16:24 20.5 °F /  -6.4 °C 17.0 °F /  -8.3 °C 29.93in /  1013.4hPa NNE 5.0mph /  8km/h 10.0mph /  16.1km/h 86% 0.00in /  0mm
16:29 20.5 °F /  -6.4 °C 17.0 °F /  -8.3 °C 29.92in /  1013.1hPa North 5.0mph /  8km/h 10.0mph /  16.1km/h 86% 0.00in /  0mm
16:34 20.5 °F /  -6.4 °C 17.0 °F /  -8.3 °C 29.92in /  1013.1hPa North 6.0mph /  9.7km/h 12.0mph /  19.3km/h 86% 0.00in /  0mm
16:39 20.6 °F /  -6.3 °C 17.1 °F /  -8.3 °C 29.92in /  1013.1hPa NNW 4.0mph /  6.4km/h 11.0mph /  17.7km/h 86% 0.00in /  0mm
16:44 20.7 °F /  -6.3 °C 17.2 °F /  -8.2 °C 29.92in /  1013.1hPa NNE 3.0mph /  4.8km/h 10.0mph /  16.1km/h 86% 0.00in /  0mm
16:49 20.6 °F /  -6.3 °C 17.1 °F /  -8.3 °C 29.92in /  1013.1hPa NNE 5.0mph /  8km/h 10.0mph /  16.1km/h 86% 0.00in /  0mm
16:54 20.7 °F /  -6.3 °C 17.2 °F /  -8.2 °C 29.92in /  1013.1hPa ENE 4.0mph /  6.4km/h 9.0mph /  14.5km/h 86% 0.00in /  0mm
16:59 20.6 °F /  -6.3 °C 17.1 °F /  -8.3 °C 29.92in /  1013.1hPa NW 9.0mph /  14.5km/h 11.0mph /  17.7km/h 86% 0.00in /  0mm
17:04 20.4 °F /  -6.4 °C 16.9 °F /  -8.4 °C 29.92in /  1013.1hPa North 7.0mph /  11.3km/h 18.0mph /  29km/h 86% 0.00in /  0mm
17:09 20.3 °F /  -6.5 °C 16.8 °F /  -8.4 °C 29.91in /  1012.8hPa North 8.0mph /  12.9km/h 18.0mph /  29km/h 86% 0.00in /  0mm
17:14 20.2 °F /  -6.6 °C 16.7 °F /  -8.5 °C 29.91in /  1012.8hPa North 7.0mph /  11.3km/h 15.0mph /  24.1km/h 86% 0.00in /  0mm
17:19 20.2 °F /  -6.6 °C 16.7 °F /  -8.5 °C 29.92in /  1013.1hPa North 7.0mph /  11.3km/h 15.0mph /  24.1km/h 86% 0.00in /  0mm
17:24 20.2 °F /  -6.6 °C 16.7 °F /  -8.5 °C 29.92in /  1013.1hPa North 3.0mph /  4.8km/h 8.0mph /  12.9km/h 86% 0.00in /  0mm
17:29 20.2 °F /  -6.6 °C 17.0 °F /  -8.3 °C 29.91in /  1012.8hPa NNE 12.0mph /  19.3km/h 13.0mph /  20.9km/h 87% 0.00in /  0mm
17:34 20.1 °F /  -6.6 °C 16.6 °F /  -8.6 °C 29.91in /  1012.8hPa North 6.0mph /  9.7km/h 16.0mph /  25.7km/h 86% 0.00in /  0mm
17:39 19.9 °F /  -6.7 °C 16.4 °F /  -8.7 °C 29.92in /  1013.1hPa NNE 7.0mph /  11.3km/h 10.0mph /  16.1km/h 86% 0.00in /  0mm
17:44 19.8 °F /  -6.8 °C 16.6 °F /  -8.6 °C 29.92in /  1013.1hPa NNW 7.0mph /  11.3km/h 11.0mph /  17.7km/h 87% 0.00in /  0mm
17:49 19.8 °F /  -6.8 °C 16.6 °F /  -8.6 °C 29.92in /  1013.1hPa North 5.0mph /  8km/h 8.0mph /  12.9km/h 87% 0.00in /  0mm
17:54 19.6 °F /  -6.9 °C 16.4 °F /  -8.7 °C 29.92in /  1013.1hPa NNW 6.0mph /  9.7km/h 11.0mph /  17.7km/h 87% 0.00in /  0mm
17:59 19.5 °F /  -6.9 °C 16.3 °F /  -8.7 °C 29.92in /  1013.1hPa NW 5.0mph /  8km/h 11.0mph /  17.7km/h 87% 0.00in /  0mm
18:04 19.3 °F /  -7.1 °C 16.1 °F /  -8.8 °C 29.92in /  1013.1hPa NNW 7.0mph /  11.3km/h 13.0mph /  20.9km/h 87% 0.00in /  0mm
18:09 19.2 °F /  -7.1 °C 16.0 °F /  -8.9 °C 29.92in /  1013.1hPa NNW 7.0mph /  11.3km/h 15.0mph /  24.1km/h 87% 0.00in /  0mm
18:14 19.1 °F /  -7.2 °C 15.9 °F /  -8.9 °C 29.92in /  1013.1hPa NNW 6.0mph /  9.7km/h 15.0mph /  24.1km/h 87% 0.00in /  0mm
18:19 19.1 °F /  -7.2 °C 15.9 °F /  -8.9 °C 29.92in /  1013.1hPa NNW 5.0mph /  8km/h 14.0mph /  22.5km/h 87% 0.00in /  0mm
18:24 19.0 °F /  -7.2 °C 15.8 °F /  -9 °C 29.92in /  1013.1hPa NNW 5.0mph /  8km/h 10.0mph /  16.1km/h 87% 0.00in /  0mm
18:29 19.0 °F /  -7.2 °C 15.8 °F /  -9 °C 29.92in /  1013.1hPa NNW 5.0mph /  8km/h 10.0mph /  16.1km/h 87% 0.00in /  0mm
18:34 18.9 °F /  -7.3 °C 15.7 °F /  -9.1 °C 29.92in /  1013.1hPa NNW 5.0mph /  8km/h 10.0mph /  16.1km/h 87% 0.00in /  0mm
18:39 18.9 °F /  -7.3 °C 15.7 °F /  -9.1 °C 29.92in /  1013.1hPa NNW 6.0mph /  9.7km/h 9.0mph /  14.5km/h 87% 0.00in /  0mm
18:44 18.8 °F /  -7.3 °C 15.6 °F /  -9.1 °C 29.93in /  1013.4hPa NNW 6.0mph /  9.7km/h 15.0mph /  24.1km/h 87% 0.00in /  0mm
18:49 18.8 °F /  -7.3 °C 15.6 °F /  -9.1 °C 29.93in /  1013.4hPa NNW 6.0mph /  9.7km/h 13.0mph /  20.9km/h 87% 0.00in /  0mm
18:54 18.7 °F /  -7.4 °C 15.5 °F /  -9.2 °C 29.93in /  1013.4hPa NNW 2.0mph /  3.2km/h 9.0mph /  14.5km/h 87% 0.00in /  0mm
18:59 18.6 °F /  -7.4 °C 15.6 °F /  -9.1 °C 29.93in /  1013.4hPa WNW 6.0mph /  9.7km/h 12.0mph /  19.3km/h 88% 0.00in /  0mm
19:04 18.4 °F /  -7.6 °C 15.2 °F /  -9.3 °C 29.93in /  1013.4hPa NNW 8.0mph /  12.9km/h 14.0mph /  22.5km/h 87% 0.00in /  0mm
19:09 18.2 °F /  -7.7 °C 15.0 °F /  -9.4 °C 29.93in /  1013.4hPa NNW 6.0mph /  9.7km/h 14.0mph /  22.5km/h 87% 0.00in /  0mm
19:14 18.2 °F /  -7.7 °C 15.2 °F /  -9.3 °C 29.93in /  1013.4hPa NNW 5.0mph /  8km/h 11.0mph /  17.7km/h 88% 0.00in /  0mm
19:19 18.0 °F /  -7.8 °C 15.0 °F /  -9.4 °C 29.93in /  1013.4hPa NNW 5.0mph /  8km/h 11.0mph /  17.7km/h 88% 0.00in /  0mm
19:24 18.0 °F /  -7.8 °C 15.0 °F /  -9.4 °C 29.93in /  1013.4hPa NNW 5.0mph /  8km/h 10.0mph /  16.1km/h 88% 0.00in /  0mm
19:29 17.9 °F /  -7.8 °C 14.9 °F /  -9.5 °C 29.93in /  1013.4hPa NNW 4.0mph /  6.4km/h 10.0mph /  16.1km/h 88% 0.00in /  0mm
19:34 17.9 °F /  -7.8 °C 14.9 °F /  -9.5 °C 29.93in /  1013.4hPa WNW 3.0mph /  4.8km/h 9.0mph /  14.5km/h 88% 0.00in /  0mm
19:39 17.8 °F /  -7.9 °C 14.8 °F /  -9.6 °C 29.93in /  1013.4hPa NNW 5.0mph /  8km/h 12.0mph /  19.3km/h 88% 0.00in /  0mm
19:44 17.7 °F /  -7.9 °C 14.8 °F /  -9.6 °C 29.93in /  1013.4hPa NW 5.0mph /  8km/h 14.0mph /  22.5km/h 88% 0.00in /  0mm
19:49 17.7 °F /  -7.9 °C 14.8 °F /  -9.6 °C 29.93in /  1013.4hPa North 10.0mph /  16.1km/h 13.0mph /  20.9km/h 88% 0.00in /  0mm
19:54 17.7 °F /  -7.9 °C 14.8 °F /  -9.6 °C 29.93in /  1013.4hPa NNW 2.0mph /  3.2km/h 10.0mph /  16.1km/h 88% 0.00in /  0mm
19:59 17.7 °F /  -7.9 °C 14.8 °F /  -9.6 °C 29.93in /  1013.4hPa North 3.0mph /  4.8km/h 9.0mph /  14.5km/h 88% 0.00in /  0mm
20:04 17.6 °F /  -8 °C 14.7 °F /  -9.6 °C 29.94in /  1013.8hPa NNW 4.0mph /  6.4km/h 10.0mph /  16.1km/h 88% 0.00in /  0mm
20:09 17.6 °F /  -8 °C 14.7 °F /  -9.6 °C 29.93in /  1013.4hPa NW 5.0mph /  8km/h 10.0mph /  16.1km/h 88% 0.00in /  0mm
20:14 17.6 °F /  -8 °C 14.7 °F /  -9.6 °C 29.93in /  1013.4hPa NNW 5.0mph /  8km/h 12.0mph /  19.3km/h 88% 0.00in /  0mm
20:19 17.6 °F /  -8 °C 14.7 °F /  -9.6 °C 29.94in /  1013.8hPa NNW 5.0mph /  8km/h 12.0mph /  19.3km/h 88% 0.00in /  0mm
20:24 17.5 °F /  -8.1 °C 14.6 °F /  -9.7 °C 29.93in /  1013.4hPa NNW 5.0mph /  8km/h 11.0mph /  17.7km/h 88% 0.00in /  0mm
20:29 17.6 °F /  -8 °C 14.7 °F /  -9.6 °C 29.94in /  1013.8hPa NNW 5.0mph /  8km/h 11.0mph /  17.7km/h 88% 0.00in /  0mm
20:34 17.6 °F /  -8 °C 14.7 °F /  -9.6 °C 29.93in /  1013.4hPa NW 4.0mph /  6.4km/h 9.0mph /  14.5km/h 88% 0.00in /  0mm
20:39 17.5 °F /  -8.1 °C 14.6 °F /  -9.7 °C 29.93in /  1013.4hPa NW 5.0mph /  8km/h 10.0mph /  16.1km/h 88% 0.00in /  0mm
20:44 17.5 °F /  -8.1 °C 14.6 °F /  -9.7 °C 29.93in /  1013.4hPa NW 5.0mph /  8km/h 10.0mph /  16.1km/h 88% 0.00in /  0mm
20:49 17.5 °F /  -8.1 °C 14.6 °F /  -9.7 °C 29.94in /  1013.8hPa NNW 6.0mph /  9.7km/h 10.0mph /  16.1km/h 88% 0.00in /  0mm
20:54 17.4 °F /  -8.1 °C 14.5 °F /  -9.7 °C 29.94in /  1013.8hPa North 6.0mph /  9.7km/h 8.0mph /  12.9km/h 88% 0.00in /  0mm
20:59 17.3 °F /  -8.2 °C 14.4 °F /  -9.8 °C 29.94in /  1013.8hPa North 3.0mph /  4.8km/h 10.0mph /  16.1km/h 88% 0.00in /  0mm
21:04 17.3 °F /  -8.2 °C 14.4 °F /  -9.8 °C 29.94in /  1013.8hPa NW 6.0mph /  9.7km/h 11.0mph /  17.7km/h 88% 0.00in /  0mm
21:09 17.4 °F /  -8.1 °C 14.5 °F /  -9.7 °C 29.93in /  1013.4hPa NW 2.0mph /  3.2km/h 9.0mph /  14.5km/h 88% 0.00in /  0mm
21:14 17.3 °F /  -8.2 °C 14.4 °F /  -9.8 °C 29.93in /  1013.4hPa North 3.0mph /  4.8km/h 9.0mph /  14.5km/h 88% 0.00in /  0mm
21:19 17.3 °F /  -8.2 °C 14.4 °F /  -9.8 °C 29.93in /  1013.4hPa NNW 4.0mph /  6.4km/h 9.0mph /  14.5km/h 88% 0.00in /  0mm
21:24 17.3 °F /  -8.2 °C 14.4 °F /  -9.8 °C 29.93in /  1013.4hPa NW 5.0mph /  8km/h 11.0mph /  17.7km/h 88% 0.00in /  0mm
21:29 17.3 °F /  -8.2 °C 14.4 °F /  -9.8 °C 29.93in /  1013.4hPa NNW 5.0mph /  8km/h 11.0mph /  17.7km/h 88% 0.00in /  0mm
21:34 17.2 °F /  -8.2 °C 14.3 °F /  -9.8 °C 29.93in /  1013.4hPa NNW 6.0mph /  9.7km/h 11.0mph /  17.7km/h 88% 0.00in /  0mm
21:39 17.1 °F /  -8.3 °C 14.2 °F /  -9.9 °C 29.93in /  1013.4hPa NW 6.0mph /  9.7km/h 13.0mph /  20.9km/h 88% 0.00in /  0mm
21:44 17.0 °F /  -8.3 °C 14.1 °F /  -9.9 °C 29.93in /  1013.4hPa NW 6.0mph /  9.7km/h 14.0mph /  22.5km/h 88% 0.00in /  0mm
21:49 17.0 °F /  -8.3 °C 14.1 °F /  -9.9 °C 29.93in /  1013.4hPa NW 7.0mph /  11.3km/h 11.0mph /  17.7km/h 88% 0.00in /  0mm
21:54 17.0 °F /  -8.3 °C 14.1 °F /  -9.9 °C 29.93in /  1013.4hPa NNW 4.0mph /  6.4km/h 14.0mph /  22.5km/h 88% 0.00in /  0mm
21:59 17.0 °F /  -8.3 °C 14.1 °F /  -9.9 °C 29.92in /  1013.1hPa NNW 4.0mph /  6.4km/h 13.0mph /  20.9km/h 88% 0.00in /  0mm
22:04 17.0 °F /  -8.3 °C 14.1 °F /  -9.9 °C 29.92in /  1013.1hPa North 5.0mph /  8km/h 9.0mph /  14.5km/h 88% 0.00in /  0mm
22:09 17.0 °F /  -8.3 °C 14.1 °F /  -9.9 °C 29.92in /  1013.1hPa NNW 4.0mph /  6.4km/h 8.0mph /  12.9km/h 88% 0.00in /  0mm
22:14 16.9 °F /  -8.4 °C 14.0 °F /  -10 °C 29.92in /  1013.1hPa NNW 6.0mph /  9.7km/h 11.0mph /  17.7km/h 88% 0.00in /  0mm
22:19 16.9 °F /  -8.4 °C 14.0 °F /  -10 °C 29.92in /  1013.1hPa NNW 5.0mph /  8km/h 10.0mph /  16.1km/h 88% 0.00in /  0mm
22:24 16.9 °F /  -8.4 °C 14.0 °F /  -10 °C 29.92in /  1013.1hPa NNW 5.0mph /  8km/h 10.0mph /  16.1km/h 88% 0.00in /  0mm
22:29 16.8 °F /  -8.4 °C 13.9 °F /  -10.1 °C 29.92in /  1013.1hPa NNW 5.0mph /  8km/h 10.0mph /  16.1km/h 88% 0.00in /  0mm
22:34 16.8 °F /  -8.4 °C 13.9 °F /  -10.1 °C 29.92in /  1013.1hPa NNW 6.0mph /  9.7km/h 12.0mph /  19.3km/h 88% 0.00in /  0mm
22:39 16.8 °F /  -8.4 °C 13.9 °F /  -10.1 °C 29.92in /  1013.1hPa NNW 6.0mph /  9.7km/h 14.0mph /  22.5km/h 88% 0.00in /  0mm
22:44 16.7 °F /  -8.5 °C 13.8 °F /  -10.1 °C 29.91in /  1012.8hPa NNW 6.0mph /  9.7km/h 14.0mph /  22.5km/h 88% 0.00in /  0mm
22:49 16.7 °F /  -8.5 °C 13.5 °F /  -10.3 °C 29.91in /  1012.8hPa North 4.0mph /  6.4km/h 17.0mph /  27.4km/h 87% 0.00in /  0mm
22:54 16.6 °F /  -8.6 °C 13.7 °F /  -10.2 °C 29.91in /  1012.8hPa NNW 2.0mph /  3.2km/h 16.0mph /  25.7km/h 88% 0.00in /  0mm
22:59 16.6 °F /  -8.6 °C 13.4 °F /  -10.3 °C 29.91in /  1012.8hPa NNW 5.0mph /  8km/h 16.0mph /  25.7km/h 87% 0.00in /  0mm
23:04 16.5 °F /  -8.6 °C 13.3 °F /  -10.4 °C 29.91in /  1012.8hPa North 6.0mph /  9.7km/h 12.0mph /  19.3km/h 87% 0.00in /  0mm
23:09 16.5 °F /  -8.6 °C 13.3 °F /  -10.4 °C 29.90in /  1012.4hPa NNW 5.0mph /  8km/h 10.0mph /  16.1km/h 87% 0.00in /  0mm
23:14 16.5 °F /  -8.6 °C 13.3 °F /  -10.4 °C 29.90in /  1012.4hPa NNW 2.0mph /  3.2km/h 11.0mph /  17.7km/h 87% 0.00in /  0mm
23:19 16.5 °F /  -8.6 °C 13.3 °F /  -10.4 °C 29.90in /  1012.4hPa NNW 4.0mph /  6.4km/h 11.0mph /  17.7km/h 87% 0.00in /  0mm
23:24 16.4 °F /  -8.7 °C 13.2 °F /  -10.4 °C 29.90in /  1012.4hPa NW 5.0mph /  8km/h 10.0mph /  16.1km/h 87% 0.00in /  0mm
23:29 16.4 °F /  -8.7 °C 13.2 °F /  -10.4 °C 29.90in /  1012.4hPa NNW 5.0mph /  8km/h 13.0mph /  20.9km/h 87% 0.00in /  0mm
23:34 16.4 °F /  -8.7 °C 13.2 °F /  -10.4 °C 29.90in /  1012.4hPa NW 7.0mph /  11.3km/h 14.0mph /  22.5km/h 87% 0.00in /  0mm
23:39 16.4 °F /  -8.7 °C 13.2 °F /  -10.4 °C 29.89in /  1012.1hPa NW 7.0mph /  11.3km/h 14.0mph /  22.5km/h 87% 0.00in /  0mm
23:44 16.3 °F /  -8.7 °C 13.1 °F /  -10.5 °C 29.89in /  1012.1hPa NW 6.0mph /  9.7km/h 12.0mph /  19.3km/h 87% 0.00in /  0mm
23:49 16.2 °F /  -8.8 °C 13.0 °F /  -10.6 °C 29.89in /  1012.1hPa NNW 6.0mph /  9.7km/h 16.0mph /  25.7km/h 87% 0.00in /  0mm
23:54 16.2 °F /  -8.8 °C 13.0 °F /  -10.6 °C 29.89in /  1012.1hPa NNW 7.0mph /  11.3km/h 16.0mph /  25.7km/h 87% 0.00in /  0mm
23:59 16.2 °F /  -8.8 °C 13.0 °F /  -10.6 °C 29.88in /  1011.7hPa WNW 8.0mph /  12.9km/h 10.0mph /  16.1km/h 87% 0.00in /  0mm
Buffalo, New York, USA
Compliments of Weather Underground - 2.5 mb